Time;durP1;ratioP1;P1;durP2;ratioP2;P2;SDS_P1;SDS_P2;PMS_P1;PMS_P2;Temp;Humidity;BMP_temperature;BMP_pressure;BME280_temperature;BME280_humidity;BME280_pressure;Samples;Min_cycle;Max_cycle;Signal;HPM_P1;HPM_P2
2022/02/22 00:01:55;;;;;;;0.10;0.10;;;5.50;99.90;;;;;;5132089;28;20040;-89
2022/02/22 00:04:22;;;;;;;0.10;0.10;;;5.30;99.90;;;;;;5100223;28;20043;-89
2022/02/22 00:06:49;;;;;;;0.10;0.10;;;5.40;99.90;;;;;;5131968;28;20051;-88
2022/02/22 00:09:15;;;;;;;0.10;0.10;;;5.00;99.90;;;;;;5100355;28;20404;-89
2022/02/22 00:11:42;;;;;;;0.10;0.10;;;5.60;99.90;;;;;;5098624;28;20134;-89
2022/02/22 00:14:11;;;;;;;0.10;0.10;;;4.90;99.90;;;;;;5114312;28;20049;-89
2022/02/22 00:16:38;;;;;;;0.10;0.10;;;4.90;99.90;;;;;;5132762;28;20485;-89
2022/02/22 00:19:04;;;;;;;0.10;0.10;;;4.90;99.90;;;;;;5132399;28;20050;-83
2022/02/22 00:21:31;;;;;;;0.10;0.10;;;5.90;99.90;;;;;;5115358;28;20089;-89
2022/02/22 00:23:58;;;;;;;0.10;0.10;;;6.10;99.90;;;;;;5132604;28;20036;-88
2022/02/22 00:26:24;;;;;;;0.10;0.10;;;5.70;99.90;;;;;;5098196;28;20042;-88
2022/02/22 00:28:51;;;;;;;0.10;0.10;;;5.10;99.90;;;;;;5114373;28;20101;-84
2022/02/22 00:31:18;;;;;;;0.10;0.10;;;6.10;99.90;;;;;;5098521;28;20043;-92
2022/02/22 00:33:44;;;;;;;0.10;0.10;;;5.00;99.90;;;;;;5114916;28;20399;-84
2022/02/22 00:36:11;;;;;;;0.10;0.10;;;5.90;99.90;;;;;;5098391;28;20108;-84
2022/02/22 00:38:38;;;;;;;0.10;0.10;;;5.10;99.90;;;;;;5115066;28;20042;-89
2022/02/22 00:41:04;;;;;;;0.10;0.10;;;5.20;99.90;;;;;;5097924;28;20043;-84
2022/02/22 00:43:31;;;;;;;0.10;0.10;;;5.00;99.90;;;;;;5098201;28;20074;-85
2022/02/22 00:45:58;;;;;;;0.75;0.75;;;5.00;99.90;;;;;;5113906;28;20039;-85
2022/02/22 00:48:24;;;;;;;0.10;0.10;;;4.90;99.90;;;;;;5114693;28;20832;-91
2022/02/22 00:50:51;;;;;;;0.10;0.10;;;5.30;99.90;;;;;;5097789;28;20565;-85
2022/02/22 00:53:19;;;;;;;0.10;0.10;;;4.70;99.90;;;;;;5115225;28;20130;-84
2022/02/22 00:55:46;;;;;;;0.10;0.10;;;4.80;99.90;;;;;;5114152;28;20410;-90
2022/02/22 00:58:12;;;;;;;0.10;0.10;;;4.80;99.90;;;;;;5097316;28;20051;-85
2022/02/22 01:00:39;;;;;;;0.10;0.10;;;5.40;99.90;;;;;;5098795;27;20035;-89
2022/02/22 01:03:06;;;;;;;0.10;0.10;;;4.70;99.90;;;;;;5100842;28;20130;-90
2022/02/22 01:05:33;;;;;;;0.10;0.10;;;5.40;99.90;;;;;;5101933;27;20035;-90
2022/02/22 01:08:02;;;;;;;0.20;0.20;;;4.70;99.90;;;;;;5100759;27;20421;-91
2022/02/22 01:10:30;;;;;;;0.10;0.10;;;4.70;99.90;;;;;;5117753;27;20031;-84
2022/02/22 01:12:57;;;;;;;0.10;0.10;;;4.70;99.90;;;;;;5116887;27;20095;-85
2022/02/22 01:15:24;;;;;;;0.10;0.10;;;4.60;99.90;;;;;;5117780;27;20039;-85
2022/02/22 01:17:51;;;;;;;0.10;0.10;;;4.60;99.90;;;;;;5118390;27;20049;-91
2022/02/22 01:20:18;;;;;;;0.10;0.10;;;4.60;99.90;;;;;;5117499;27;20039;-90
2022/02/22 01:22:46;;;;;;;0.10;0.10;;;5.50;99.90;;;;;;5135275;27;20122;-84
2022/02/22 01:25:13;;;;;;;0.10;0.10;;;5.50;99.90;;;;;;5118450;27;20122;-91
2022/02/22 01:27:40;;;;;;;0.10;0.10;;;4.90;99.90;;;;;;5134410;27;20075;-84
2022/02/22 01:30:07;;;;;;;0.10;0.10;;;4.50;99.90;;;;;;5100291;28;20043;-85
2022/02/22 01:32:34;;;;;;;0.10;0.10;;;4.40;99.90;;;;;;5117784;28;20126;-85
2022/02/22 01:35:01;;;;;;;0.10;0.10;;;4.50;99.90;;;;;;5133415;28;20085;-85
2022/02/22 01:37:27;;;;;;;0.10;0.10;;;5.40;99.90;;;;;;5101508;28;20042;-85
2022/02/22 01:39:54;;;;;;;0.10;0.10;;;4.50;99.90;;;;;;5101136;28;20039;-85
2022/02/22 01:42:21;;;;;;;0.10;0.10;;;4.40;99.90;;;;;;5100687;28;20509;-88
2022/02/22 01:44:48;;;;;;;0.10;0.10;;;4.90;99.90;;;;;;5134723;28;20071;-89
2022/02/22 01:47:17;;;;;;;0.10;0.10;;;4.90;99.90;;;;;;5134819;28;20042;-90
2022/02/22 01:49:45;;;;;;;0.10;0.10;;;4.40;99.90;;;;;;5134935;28;20062;-90
2022/02/22 01:52:12;;;;;;;0.10;0.10;;;5.00;99.90;;;;;;5134012;28;20075;-85
2022/02/22 01:54:39;;;;;;;0.20;0.20;;;5.20;99.90;;;;;;5117628;28;20039;-90
2022/02/22 01:57:06;;;;;;;0.10;0.10;;;4.40;99.90;;;;;;5117639;28;20031;-85
2022/02/22 01:59:33;;;;;;;0.10;0.10;;;4.40;99.90;;;;;;5134824;28;20043;-85
2022/02/22 02:02:00;;;;;;;0.10;0.10;;;4.70;99.90;;;;;;5133416;28;20088;-85
2022/02/22 02:04:29;;;;;;;0.10;0.10;;;4.70;99.90;;;;;;5116973;28;20503;-89
2022/02/22 02:07:00;;;;;;;0.10;0.10;;;4.30;99.90;;;;;;5118263;28;20051;-90
2022/02/22 02:09:26;;;;;;;0.10;0.10;;;4.30;99.90;;;;;;5133977;28;20039;-90
2022/02/22 02:11:58;;;;;;;0.10;0.10;;;4.40;99.90;;;;;;5134175;28;20054;-90
2022/02/22 02:14:26;;;;;;;0.15;0.15;;;4.30;99.90;;;;;;5133967;28;20039;-90
2022/02/22 02:16:54;;;;;;;0.10;0.10;;;4.30;99.90;;;;;;5134133;28;20043;-90
2022/02/22 02:19:21;;;;;;;0.10;0.10;;;4.30;99.90;;;;;;5150672;28;20049;-85
2022/02/22 02:21:49;;;;;;;0.10;0.10;;;4.20;99.90;;;;;;5136421;27;20118;-90
2022/02/22 02:24:21;;;;;;;0.17;0.17;;;4.50;99.90;;;;;;5137493;27;20039;-91
2022/02/22 02:26:49;;;;;;;0.10;0.10;;;4.20;99.90;;;;;;5120962;27;20035;-85
2022/02/22 02:29:18;;;;;;;0.10;0.10;;;4.20;99.90;;;;;;5137197;27;20112;-90
2022/02/22 02:31:47;;;;;;;0.10;0.10;;;4.20;99.90;;;;;;5120392;27;20107;-85
2022/02/22 02:34:20;;;;;;;0.10;0.10;;;5.00;99.90;;;;;;5120727;27;20036;-90
2022/02/22 02:36:47;;;;;;;0.10;0.10;;;4.70;99.90;;;;;;5137589;27;20039;-91
2022/02/22 02:39:14;;;;;;;0.10;0.10;;;4.20;99.90;;;;;;5104034;27;20050;-90
2022/02/22 02:41:42;;;;;;;0.10;0.10;;;4.40;99.90;;;;;;5137517;27;20377;-85
2022/02/22 02:44:13;;;;;;;0.10;0.10;;;4.20;99.90;;;;;;5136648;27;20449;-85
2022/02/22 02:46:41;;;;;;;0.10;0.10;;;4.20;99.90;;;;;;5137177;27;20039;-85
2022/02/22 02:49:09;;;;;;;0.10;0.10;;;4.20;99.90;;;;;;5137802;27;20158;-85
2022/02/22 02:51:36;;;;;;;0.10;0.10;;;4.30;99.90;;;;;;5154502;27;20050;-91
2022/02/22 02:54:04;;;;;;;0.10;0.10;;;4.60;99.90;;;;;;5137451;27;20039;-88
2022/02/22 02:56:31;;;;;;;0.10;0.10;;;4.10;99.90;;;;;;5137093;27;20035;-84
2022/02/22 02:59:00;;;;;;;0.10;0.10;;;4.10;99.90;;;;;;5137321;27;20043;-85
2022/02/22 03:01:29;;;;;;;0.10;0.10;;;4.70;99.90;;;;;;5137171;27;20061;-90
2022/02/22 03:03:56;;;;;;;0.10;0.10;;;4.00;99.90;;;;;;5136682;27;20109;-84
2022/02/22 03:06:23;;;;;;;0.57;0.57;;;4.60;99.90;;;;;;5137163;27;20039;-90
2022/02/22 03:08:50;;;;;;;0.10;0.10;;;3.90;99.90;;;;;;5136970;27;20042;-84
2022/02/22 03:11:17;;;;;;;0.10;0.10;;;3.90;99.90;;;;;;5103561;27;20039;-90
2022/02/22 03:13:44;;;;;;;0.10;0.10;;;4.70;99.90;;;;;;5137633;27;20046;-89
2022/02/22 03:16:11;;;;;;;0.10;0.10;;;4.40;99.90;;;;;;5137148;27;20047;-90
2022/02/22 03:18:38;;;;;;;0.10;0.10;;;3.90;99.90;;;;;;5120973;27;20178;-85
2022/02/22 03:21:05;;;;;;;0.10;0.10;;;4.40;99.90;;;;;;5119163;27;20104;-85
2022/02/22 03:23:32;;;;;;;0.10;0.10;;;3.90;99.90;;;;;;5103277;27;20039;-90
2022/02/22 03:25:58;;;;;;;0.10;0.10;;;4.90;99.90;;;;;;5136018;27;20042;-84
2022/02/22 03:28:26;;;;;;;0.10;0.10;;;4.50;99.90;;;;;;5103180;27;20039;-85
2022/02/22 03:30:54;;;;;;;0.10;0.10;;;4.50;99.90;;;;;;5137390;27;20107;-85
2022/02/22 03:33:21;;;;;;;0.10;0.10;;;4.20;99.90;;;;;;5102191;27;20043;-90
2022/02/22 03:35:48;;;;;;;0.63;0.63;;;4.00;99.90;;;;;;5119774;27;20061;-90
2022/02/22 03:38:15;;;;;;;1.08;0.30;;;4.30;99.90;;;;;;5135461;27;20047;-90
2022/02/22 03:40:41;;;;;;;0.10;0.10;;;4.60;99.90;;;;;;5119800;27;20035;-90
2022/02/22 03:43:08;;;;;;;0.10;0.10;;;4.40;99.90;;;;;;5103610;27;20092;-90
2022/02/22 03:45:35;;;;;;;0.10;0.10;;;3.80;99.90;;;;;;5119355;27;20031;-90
2022/02/22 03:48:02;;;;;;;0.10;0.10;;;3.80;99.90;;;;;;5119300;27;20649;-85
2022/02/22 03:50:28;;;;;;;0.10;0.10;;;4.50;99.90;;;;;;5136525;27;20039;-90
2022/02/22 03:52:55;;;;;;;0.10;0.10;;;3.70;99.90;;;;;;5102962;27;20063;-85
2022/02/22 03:55:23;;;;;;;0.10;0.10;;;3.60;99.90;;;;;;5118699;27;20123;-90
2022/02/22 03:57:50;;;;;;;0.10;0.10;;;3.60;99.90;;;;;;5153016;27;20110;-85
2022/02/22 04:00:18;;;;;;;0.10;0.10;;;3.50;99.90;;;;;;5118426;27;20559;-90
2022/02/22 04:02:46;;;;;;;0.10;0.10;;;3.50;99.90;;;;;;5119706;27;20117;-89
2022/02/22 04:05:14;;;;;;;0.10;0.10;;;3.60;99.90;;;;;;5135796;27;20841;-91
2022/02/22 04:07:41;;;;;;;0.10;0.10;;;3.60;99.90;;;;;;5118437;27;20491;-84
2022/02/22 04:10:09;;;;;;;0.10;0.10;;;3.50;99.90;;;;;;5118600;27;20035;-84
2022/02/22 04:12:36;;;;;;;0.10;0.10;;;3.60;99.90;;;;;;5118502;27;20046;-90
2022/02/22 04:15:04;;;;;;;0.10;0.10;;;3.70;99.90;;;;;;5119364;27;20043;-85
2022/02/22 04:17:31;;;;;;;0.20;0.20;;;3.70;99.90;;;;;;5118841;27;20479;-90
2022/02/22 04:19:58;;;;;;;0.10;0.10;;;3.70;99.90;;;;;;5119789;27;20176;-90
2022/02/22 04:22:25;;;;;;;0.20;0.20;;;4.80;99.90;;;;;;5102860;27;20126;-85
2022/02/22 04:24:52;;;;;;;0.20;0.20;;;4.80;99.90;;;;;;5134723;27;20478;-85
2022/02/22 04:27:18;;;;;;;0.10;0.10;;;4.00;99.90;;;;;;5134399;27;20050;-85
2022/02/22 04:29:45;;;;;;;0.10;0.10;;;3.60;99.90;;;;;;5101395;27;20043;-91
2022/02/22 04:32:12;;;;;;;0.10;0.10;;;3.60;99.90;;;;;;5102108;27;20035;-90
2022/02/22 04:34:39;;;;;;;0.10;0.10;;;3.60;99.90;;;;;;5101012;27;20050;-90
2022/02/22 04:37:05;;;;;;;0.10;0.10;;;4.00;99.90;;;;;;5137748;27;20041;-90
2022/02/22 04:39:32;;;;;;;0.10;0.10;;;4.90;99.90;;;;;;5135554;27;20104;-91
2022/02/22 04:41:59;;;;;;;0.10;0.10;;;3.80;99.90;;;;;;5119113;27;20045;-89
2022/02/22 04:44:26;;;;;;;0.10;0.10;;;3.70;99.90;;;;;;5119198;27;20031;-91
2022/02/22 04:46:52;;;;;;;0.10;0.10;;;4.50;99.90;;;;;;5134658;27;20440;-84
2022/02/22 04:49:20;;;;;;;0.10;0.10;;;3.70;99.90;;;;;;5119181;27;20039;-90
2022/02/22 04:51:47;;;;;;;0.10;0.10;;;3.70;99.90;;;;;;5119794;27;20039;-90
2022/02/22 04:54:14;;;;;;;0.10;0.10;;;3.80;99.90;;;;;;5118046;27;20043;-85
2022/02/22 04:56:40;;;;;;;0.10;0.10;;;4.00;99.90;;;;;;5117596;27;20522;-91
2022/02/22 04:59:07;;;;;;;0.10;0.10;;;3.70;99.90;;;;;;5102254;27;20035;-91
2022/02/22 05:01:34;;;;;;;0.10;0.10;;;4.20;99.90;;;;;;5100848;27;20050;-89
2022/02/22 05:04:00;;;;;;;0.15;0.15;;;3.70;99.90;;;;;;5134602;27;20096;-90
2022/02/22 05:06:27;;;;;;;0.10;0.10;;;3.60;99.90;;;;;;5101763;27;20043;-90
2022/02/22 05:08:54;;;;;;;0.20;0.20;;;4.10;99.90;;;;;;5102354;27;20122;-90
2022/02/22 05:11:24;;;;;;;0.10;0.10;;;3.60;99.90;;;;;;5101436;27;20068;-90
2022/02/22 05:13:50;;;;;;;0.10;0.10;;;3.60;99.90;;;;;;5134940;27;20395;-90
2022/02/22 05:16:17;;;;;;;0.10;0.10;;;4.20;99.90;;;;;;5100717;27;20046;-85
2022/02/22 05:18:44;;;;;;;0.20;0.20;;;4.20;99.90;;;;;;5100189;28;20043;-85
2022/02/22 05:21:11;;;;;;;0.10;0.10;;;3.50;99.90;;;;;;5101581;27;20071;-85
2022/02/22 05:23:37;;;;;;;0.10;0.10;;;3.40;99.90;;;;;;5116996;27;20080;-84
2022/02/22 05:26:06;;;;;;;0.10;0.10;;;3.40;99.90;;;;;;5100984;27;20433;-85
2022/02/22 05:28:33;;;;;;;0.20;0.20;;;4.30;99.90;;;;;;5100227;28;20042;-91
2022/02/22 05:30:59;;;;;;;0.10;0.10;;;4.30;99.90;;;;;;5117230;28;20084;-84
2022/02/22 05:33:26;;;;;;;0.20;0.20;;;3.30;99.90;;;;;;5116500;28;20083;-85
2022/02/22 05:35:54;;;;;;;0.10;0.10;;;4.10;99.90;;;;;;5118274;28;20035;-90
2022/02/22 05:38:21;;;;;;;0.20;0.20;;;4.20;99.90;;;;;;5134005;28;20108;-85
2022/02/22 05:40:47;;;;;;;0.10;0.10;;;3.30;99.90;;;;;;5134129;28;20495;-90
2022/02/22 05:43:14;;;;;;;0.10;0.10;;;3.70;99.90;;;;;;5134648;28;20096;-90
2022/02/22 05:45:41;;;;;;;0.10;0.10;;;3.30;99.90;;;;;;5118216;28;20395;-90
2022/02/22 05:48:08;;;;;;;0.10;0.10;;;3.20;99.90;;;;;;5100814;28;20042;-90
2022/02/22 05:50:34;;;;;;;0.10;0.10;;;3.90;99.90;;;;;;5118088;28;20080;-85
2022/02/22 05:53:01;;;;;;;0.15;0.15;;;3.90;99.90;;;;;;5117064;28;20491;-91
2022/02/22 05:55:28;;;;;;;0.20;0.20;;;4.00;99.90;;;;;;5100398;27;20035;-84
2022/02/22 05:57:54;;;;;;;0.10;0.10;;;3.30;99.90;;;;;;5104050;27;20078;-84
2022/02/22 06:00:21;;;;;;;0.10;0.10;;;3.30;99.90;;;;;;5105103;27;20058;-91
2022/02/22 06:02:48;;;;;;;0.10;0.10;;;3.30;99.90;;;;;;5104929;27;20141;-89
2022/02/22 06:05:15;;;;;;;0.10;0.10;;;3.30;99.90;;;;;;5105657;27;20103;-84
2022/02/22 06:07:41;;;;;;;1.55;0.52;;;3.30;99.90;;;;;;5138437;27;20063;-85
2022/02/22 06:10:08;;;;;;;0.20;0.20;;;3.30;99.90;;;;;;5103888;27;20068;-84
2022/02/22 06:12:35;;;;;;;0.10;0.10;;;3.30;99.90;;;;;;5120706;27;20479;-90
2022/02/22 06:15:03;;;;;;;0.20;0.20;;;3.80;99.90;;;;;;5122123;27;20046;-91
2022/02/22 06:17:36;;;;;;;0.10;0.10;;;3.30;99.90;;;;;;5121633;27;20112;-90
2022/02/22 06:20:03;;;;;;;0.13;0.13;;;3.30;99.90;;;;;;5138500;27;20488;-89
2022/02/22 06:22:30;;;;;;;0.10;0.10;;;3.30;99.90;;;;;;5103748;27;20481;-85
2022/02/22 06:24:57;;;;;;;0.13;0.13;;;3.30;99.90;;;;;;5121138;27;20050;-91
2022/02/22 06:27:23;;;;;;;0.20;0.20;;;3.30;99.90;;;;;;5104084;27;20865;-91
2022/02/22 06:29:50;;;;;;;0.10;0.10;;;4.40;99.90;;;;;;5104424;27;20100;-84
2022/02/22 06:32:17;;;;;;;0.20;0.20;;;3.30;99.90;;;;;;5103578;27;20046;-90
2022/02/22 06:34:43;;;;;;;0.10;0.10;;;3.20;99.90;;;;;;5102976;27;20406;-91
2022/02/22 06:37:10;;;;;;;0.17;0.17;;;3.80;99.90;;;;;;5138024;27;20043;-90
2022/02/22 06:39:37;;;;;;;0.10;0.10;;;3.10;99.90;;;;;;5103662;27;20078;-85
2022/02/22 06:42:04;;;;;;;0.13;0.13;;;3.40;99.90;;;;;;5120303;27;20122;-84
2022/02/22 06:44:30;;;;;;;0.15;0.15;;;3.10;99.90;;;;;;5120946;27;20532;-90
2022/02/22 06:46:57;;;;;;;0.10;0.10;;;3.40;99.90;;;;;;5103816;27;20043;-90
2022/02/22 06:49:24;;;;;;;0.10;0.10;;;3.10;99.90;;;;;;5137259;27;20031;-84
2022/02/22 06:51:50;;;;;;;0.10;0.10;;;3.10;99.90;;;;;;5103844;27;20043;-84
2022/02/22 06:54:18;;;;;;;0.10;0.10;;;3.90;99.90;;;;;;5104138;27;20043;-90
2022/02/22 06:56:44;;;;;;;0.10;0.10;;;3.10;99.90;;;;;;5103303;27;20054;-84
2022/02/22 06:59:11;;;;;;;0.10;0.10;;;3.20;99.90;;;;;;5103832;27;20039;-84
2022/02/22 07:01:38;;;;;;;0.10;0.10;;;3.10;99.90;;;;;;5103602;27;20039;-85
2022/02/22 07:04:04;;;;;;;0.15;0.15;;;3.40;99.90;;;;;;5120314;27;20058;-90
2022/02/22 07:06:33;;;;;;;0.10;0.10;;;4.20;99.90;;;;;;5103255;27;20474;-84
2022/02/22 07:08:59;;;;;;;0.20;0.20;;;3.00;99.90;;;;;;5135098;27;20062;-92
2022/02/22 07:11:26;;;;;;;0.20;0.20;;;3.10;99.90;;;;;;5119548;27;20074;-84
2022/02/22 07:13:53;;;;;;;0.13;0.13;;;3.70;99.90;;;;;;5136578;27;20050;-91
2022/02/22 07:16:19;;;;;;;0.10;0.10;;;3.70;99.90;;;;;;5137554;27;20081;-91
2022/02/22 07:18:46;;;;;;;0.10;0.10;;;3.10;99.90;;;;;;5103169;27;20039;-91
2022/02/22 07:21:13;;;;;;;0.20;0.20;;;3.80;99.90;;;;;;5119492;27;20035;-91
2022/02/22 07:23:39;;;;;;;0.10;0.10;;;3.90;99.90;;;;;;5103599;27;20035;-90
2022/02/22 07:26:06;;;;;;;0.10;0.10;;;3.20;99.90;;;;;;5136417;27;20039;-90
2022/02/22 07:28:33;;;;;;;0.10;0.10;;;3.20;99.90;;;;;;5102879;27;20064;-90
2022/02/22 07:30:59;;;;;;;0.10;0.10;;;3.70;99.90;;;;;;5119644;27;20078;-84
2022/02/22 07:33:26;;;;;;;0.10;0.10;;;3.30;99.90;;;;;;5121177;27;20045;-91
2022/02/22 07:35:53;;;;;;;0.10;0.10;;;4.10;99.90;;;;;;5119783;27;20491;-91
2022/02/22 07:38:20;;;;;;;0.10;0.10;;;3.60;99.90;;;;;;5122892;27;20050;-91
2022/02/22 07:40:46;;;;;;;0.20;0.20;;;3.50;99.90;;;;;;5102560;27;20038;-91
2022/02/22 07:43:13;;;;;;;0.10;0.10;;;3.60;99.90;;;;;;5136088;27;20039;-91
2022/02/22 07:45:40;;;;;;;0.10;0.10;;;3.60;99.90;;;;;;5103689;27;20035;-91
2022/02/22 07:48:07;;;;;;;0.10;0.10;;;3.70;99.90;;;;;;5099729;27;20042;-91
2022/02/22 07:50:36;;;;;;;0.10;0.10;;;4.60;99.90;;;;;;5106405;27;20034;-91
2022/02/22 07:53:03;;;;;;;0.20;0.20;;;3.70;99.90;;;;;;5115180;28;20139;-86
2022/02/22 07:55:30;;;;;;;0.10;0.10;;;4.40;99.90;;;;;;5116265;28;20555;-89
2022/02/22 07:57:56;;;;;;;0.10;0.10;;;3.80;99.90;;;;;;5117612;27;20035;-84
2022/02/22 08:00:23;;;;;;;0.10;0.10;;;3.80;99.90;;;;;;5101645;27;20046;-91
2022/02/22 08:02:54;;;;;;;0.20;0.20;;;4.00;99.90;;;;;;5131882;28;20055;-90
2022/02/22 08:05:24;;;;;;;0.10;0.10;;;3.80;99.90;;;;;;5132380;28;20484;-90
2022/02/22 08:07:51;;;;;;;0.10;0.10;;;4.40;99.90;;;;;;5115078;28;20039;-91
2022/02/22 08:10:17;;;;;;;0.10;0.10;;;4.90;99.90;;;;;;5114518;28;20043;-90
2022/02/22 08:12:44;;;;;;;0.10;0.10;;;4.90;99.90;;;;;;5097931;28;20061;-85
2022/02/22 08:15:11;;;;;;;0.10;0.10;;;3.80;99.90;;;;;;5097699;28;20400;-84
2022/02/22 08:17:41;;;;;;;0.10;0.10;;;3.90;99.90;;;;;;5114208;28;20044;-91
2022/02/22 08:20:09;;;;;;;0.10;0.10;;;3.90;99.90;;;;;;5130981;28;20044;-92
2022/02/22 08:22:37;;;;;;;0.10;0.10;;;4.00;99.90;;;;;;5115345;28;20072;-84
2022/02/22 08:25:05;;;;;;;0.10;0.10;;;4.00;99.90;;;;;;5096694;28;20036;-84
2022/02/22 08:27:31;;;;;;;0.10;0.10;;;4.10;99.90;;;;;;5130047;28;20046;-84
2022/02/22 08:29:58;;;;;;;0.10;0.10;;;4.20;99.90;;;;;;5094796;28;20036;-86
2022/02/22 08:32:25;;;;;;;0.10;0.10;;;4.30;99.90;;;;;;5114149;28;20480;-91
2022/02/22 08:34:52;;;;;;;0.10;0.10;;;4.40;99.90;;;;;;5113066;28;20039;-85
2022/02/22 08:37:18;;;;;;;0.10;0.10;;;4.40;99.90;;;;;;5097522;28;20068;-90
2022/02/22 08:39:45;;;;;;;0.10;0.10;;;5.10;99.90;;;;;;5094085;28;20127;-89
2022/02/22 08:42:12;;;;;;;0.10;0.10;;;4.50;99.90;;;;;;5094508;28;20046;-86
2022/02/22 08:44:39;;;;;;;0.10;0.10;;;4.50;99.90;;;;;;5111327;28;20032;-86
2022/02/22 08:47:06;;;;;;;0.10;0.10;;;4.70;99.90;;;;;;5099153;28;20352;-90
2022/02/22 08:49:33;;;;;;;0.10;0.10;;;4.60;99.90;;;;;;5113982;28;20096;-91
2022/02/22 08:52:00;;;;;;;0.10;0.10;;;4.70;99.90;;;;;;5114278;28;20068;-90
2022/02/22 08:54:27;;;;;;;0.10;0.10;;;4.70;99.90;;;;;;5098307;28;20098;-91
2022/02/22 08:56:54;;;;;;;0.10;0.10;;;5.00;99.90;;;;;;5130185;28;20043;-83
2022/02/22 08:59:21;;;;;;;0.10;0.10;;;4.90;99.90;;;;;;5096979;28;20044;-87
2022/02/22 09:01:48;;;;;;;0.10;0.10;;;4.90;99.90;;;;;;5130864;28;20055;-90
2022/02/22 09:04:15;;;;;;;0.10;0.10;;;5.00;99.90;;;;;;5113726;28;20039;-89
2022/02/22 09:06:42;;;;;;;0.10;0.10;;;5.30;99.90;;;;;;5114716;28;20044;-90
2022/02/22 09:09:09;;;;;;;0.10;0.10;;;5.20;99.90;;;;;;5130474;28;20870;-84
2022/02/22 09:11:35;;;;;;;0.10;0.10;;;5.30;99.90;;;;;;5113632;28;20039;-90
2022/02/22 09:14:02;;;;;;;0.10;0.10;;;5.30;99.90;;;;;;5114015;28;20059;-87
2022/02/22 09:16:29;;;;;;;0.10;0.10;;;5.40;99.90;;;;;;5113868;28;20079;-85
2022/02/22 09:18:56;;;;;;;0.10;0.10;;;5.50;99.90;;;;;;5096978;28;20036;-87
2022/02/22 09:21:23;;;;;;;0.10;0.10;;;5.80;99.90;;;;;;5092876;28;20047;-85
2022/02/22 09:23:49;;;;;;;0.10;0.10;;;5.60;99.90;;;;;;5094430;28;20477;-90
2022/02/22 09:26:16;;;;;;;0.10;0.10;;;5.80;99.90;;;;;;5096959;28;20505;-90
2022/02/22 09:28:45;;;;;;;0.10;0.10;;;5.80;99.90;;;;;;5114649;28;20047;-92
2022/02/22 09:31:12;;;;;;;0.10;0.10;;;5.80;99.90;;;;;;5113521;28;20056;-84
2022/02/22 09:33:39;;;;;;;0.10;0.10;;;5.90;99.90;;;;;;5113906;28;20134;-92
2022/02/22 09:36:06;;;;;;;0.03;0.03;;;5.90;99.90;;;;;;5097354;28;20097;-92
2022/02/22 09:38:33;;;;;;;0.10;0.10;;;5.90;99.90;;;;;;5114513;28;20163;-88
2022/02/22 09:41:01;;;;;;;0.10;0.10;;;6.00;99.90;;;;;;5114143;28;20174;-95
2022/02/22 09:43:28;;;;;;;0.17;0.17;;;6.00;99.90;;;;;;5130860;28;20055;-94
2022/02/22 09:45:56;;;;;;;0.10;0.10;;;6.10;99.90;;;;;;5114208;28;20035;-88
2022/02/22 09:48:23;;;;;;;0.10;0.10;;;6.10;99.90;;;;;;5131728;28;20043;-93
2022/02/22 09:50:50;;;;;;;0.10;0.10;;;6.10;99.90;;;;;;5130031;28;20036;-93
2022/02/22 09:53:17;;;;;;;0.00;0.00;;;6.10;99.90;;;;;;5114473;28;20035;-86
2022/02/22 09:55:44;;;;;;;0.10;0.10;;;6.60;99.90;;;;;;5114602;28;20032;-93
2022/02/22 09:58:11;;;;;;;0.10;0.10;;;6.90;99.90;;;;;;5096783;28;20069;-86
2022/02/22 10:00:38;;;;;;;0.10;0.10;;;6.20;99.90;;;;;;5114456;28;20082;-93
2022/02/22 10:03:16;;;;;;;0.10;0.10;;;6.20;99.90;;;;;;5130930;28;20048;-91
2022/02/22 10:05:52;;;;;;;0.10;0.10;;;6.10;99.90;;;;;;5129797;28;20071;-86
2022/02/22 10:08:31;;;;;;;0.28;0.28;;;6.20;99.90;;;;;;5130363;28;20035;-85
2022/02/22 10:11:06;;;;;;;0.10;0.10;;;6.10;99.90;;;;;;5129778;28;20770;-93
2022/02/22 10:13:34;;;;;;;0.10;0.10;;;6.10;99.90;;;;;;5129507;28;20075;-92
2022/02/22 10:16:12;;;;;;;0.10;0.10;;;6.10;99.90;;;;;;5113320;28;20093;-92
2022/02/22 10:19:05;;;;;;;0.08;0.08;;;6.20;99.90;;;;;;5113229;28;20047;-92
2022/02/22 10:21:44;;;;;;;0.10;0.10;;;6.20;99.90;;;;;;5125136;28;20088;-83
2022/02/22 10:24:12;;;;;;;0.10;0.10;;;6.20;99.90;;;;;;5129025;28;20039;-84
2022/02/22 10:26:39;;;;;;;0.10;0.10;;;6.20;99.90;;;;;;5113463;28;20039;-91
2022/02/22 10:29:17;;;;;;;0.10;0.10;;;6.30;99.90;;;;;;5129646;28;20036;-87
2022/02/22 10:31:46;;;;;;;0.10;0.10;;;6.30;99.90;;;;;;5114407;28;20044;-87
2022/02/22 10:34:14;;;;;;;0.10;0.10;;;6.40;99.90;;;;;;5130138;28;20075;-84
2022/02/22 10:36:43;;;;;;;0.00;0.00;;;6.40;99.90;;;;;;5113455;28;20040;-85
2022/02/22 10:39:11;;;;;;;0.10;0.10;;;6.50;99.90;;;;;;5113256;28;20036;-87
2022/02/22 10:41:41;;;;;;;0.10;0.10;;;6.50;99.90;;;;;;5113182;28;20111;-87
2022/02/22 10:44:10;;;;;;;0.00;0.00;;;6.60;99.90;;;;;;5133622;28;20036;-86
2022/02/22 10:46:45;;;;;;;0.10;0.10;;;6.60;99.90;;;;;;5133504;28;20110;-87
2022/02/22 10:49:13;;;;;;;0.10;0.10;;;6.70;99.90;;;;;;5134078;28;20043;-87
2022/02/22 10:51:43;;;;;;;0.00;0.00;;;6.70;99.90;;;;;;5133235;28;20292;-87
2022/02/22 10:54:26;;;;;;;0.00;0.00;;;7.10;99.90;;;;;;5133579;28;20126;-94
2022/02/22 10:56:54;;;;;;;0.10;0.10;;;6.70;99.90;;;;;;5151590;28;20040;-88
2022/02/22 10:59:23;;;;;;;0.10;0.10;;;6.80;99.90;;;;;;5117393;28;20031;-89
2022/02/22 11:01:51;;;;;;;0.10;0.10;;;6.80;99.90;;;;;;5133702;28;20044;-89
2022/02/22 11:04:18;;;;;;;0.10;0.10;;;6.70;99.90;;;;;;5114949;28;20510;-85
2022/02/22 11:06:45;;;;;;;0.10;0.10;;;6.80;99.90;;;;;;5133608;28;20036;-92
2022/02/22 11:09:19;;;;;;;0.00;0.00;;;6.80;99.90;;;;;;5116379;28;20135;-85
2022/02/22 11:12:12;;;;;;;0.10;0.10;;;6.80;99.90;;;;;;5117178;28;20126;-85
2022/02/22 11:14:38;;;;;;;0.10;0.10;;;6.80;99.90;;;;;;5150252;28;20043;-92
2022/02/22 11:17:17;;;;;;;0.10;0.10;;;6.80;99.90;;;;;;5116634;28;20046;-85
2022/02/22 11:19:46;;;;;;;0.10;0.10;;;6.80;99.90;;;;;;5131872;28;20055;-93
2022/02/22 11:22:23;;;;;;;0.10;0.10;;;6.80;99.90;;;;;;5117051;28;20047;-93
2022/02/22 11:24:57;;;;;;;0.03;0.03;;;6.80;99.90;;;;;;5149849;28;20045;-86
2022/02/22 11:27:30;;;;;;;0.10;0.10;;;6.90;99.90;;;;;;5115970;28;20509;-89
2022/02/22 11:30:04;;;;;;;0.10;0.10;;;6.90;99.90;;;;;;5134611;28;20039;-92
2022/02/22 11:32:30;;;;;;;0.10;0.10;;;6.90;99.90;;;;;;5150055;28;20055;-93
2022/02/22 11:35:09;;;;;;;0.10;0.10;;;6.90;99.90;;;;;;5116834;28;20044;-92
2022/02/22 11:37:36;;;;;;;0.00;0.00;;;7.00;99.90;;;;;;5132086;28;20484;-85
2022/02/22 11:40:05;;;;;;;0.10;0.10;;;7.00;99.90;;;;;;5098641;28;20150;-92
2022/02/22 11:42:33;;;;;;;0.10;0.10;;;7.00;99.90;;;;;;5099537;28;20043;-85
2022/02/22 11:45:11;;;;;;;0.10;0.10;;;7.00;99.90;;;;;;5115638;28;20032;-92
2022/02/22 11:47:40;;;;;;;0.10;0.10;;;7.00;99.90;;;;;;5132640;28;20036;-94
2022/02/22 11:50:15;;;;;;;0.00;0.00;;;7.10;99.90;;;;;;5133296;28;20093;-95
2022/02/22 11:52:47;;;;;;;0.10;0.10;;;7.00;99.90;;;;;;5115515;28;20040;-85
2022/02/22 11:55:17;;;;;;;0.10;0.10;;;7.00;99.90;;;;;;5131154;28;20046;-93
2022/02/22 11:57:53;;;;;;;0.10;0.10;;;7.00;99.90;;;;;;5149884;28;20051;-95
2022/02/22 12:00:36;;;;;;;;;;;6.90;99.90;;;;;;5132124;28;20046;-94
2022/02/22 12:03:11;;;;;;;0.03;0.03;;;6.90;99.90;;;;;;5132123;28;19920;-94
2022/02/22 12:05:44;;;;;;;0.10;0.10;;;6.80;99.90;;;;;;5132475;28;20039;-92
2022/02/22 12:08:21;;;;;;;0.10;0.10;;;6.80;99.90;;;;;;5131698;28;20075;-87
2022/02/22 12:10:50;;;;;;;0.10;0.10;;;6.80;99.90;;;;;;5132202;28;20082;-94
2022/02/22 12:13:19;;;;;;;0.10;0.10;;;6.80;99.90;;;;;;5132313;28;20500;-87
2022/02/22 12:15:47;;;;;;;0.10;0.10;;;6.80;99.90;;;;;;5132229;28;20036;-94
2022/02/22 12:18:18;;;;;;;0.10;0.10;;;6.80;99.90;;;;;;5115222;28;20496;-87
2022/02/22 12:20:45;;;;;;;0.10;0.10;;;6.80;99.90;;;;;;5132391;28;20047;-87
2022/02/22 12:23:31;;;;;;;0.10;0.10;;;6.80;99.90;;;;;;5131120;28;20115;-93
2022/02/22 12:26:08;;;;;;;0.10;0.10;;;6.70;99.90;;;;;;5114963;28;20480;-87
2022/02/22 12:28:52;;;;;;;0.10;0.10;;;6.70;99.90;;;;;;5132167;28;20614;-87
2022/02/22 12:31:25;;;;;;;0.10;0.10;;;6.60;99.90;;;;;;5131267;28;20032;-87
2022/02/22 12:33:56;;;;;;;0.10;0.10;;;5.80;99.90;;;;;;5111249;28;20089;-84
2022/02/22 12:36:26;;;;;;;0.05;0.05;;;6.50;99.90;;;;;;5121232;28;20574;-90
2022/02/22 12:39:07;;;;;;;0.10;0.10;;;6.70;99.90;;;;;;5131644;28;20100;-84
2022/02/22 12:41:37;;;;;;;0.05;0.05;;;6.60;99.90;;;;;;5118775;28;20048;-86
2022/02/22 12:44:23;;;;;;;0.05;0.05;;;6.40;99.90;;;;;;5128950;28;20043;-85
2022/02/22 12:46:52;;;;;;;0.10;0.10;;;7.30;99.90;;;;;;5110993;28;20035;-83
2022/02/22 12:49:21;;;;;;;0.08;0.08;;;6.40;99.90;;;;;;5109615;28;20783;-85
2022/02/22 12:51:49;;;;;;;0.10;0.10;;;6.40;99.90;;;;;;5112530;28;20156;-88
2022/02/22 12:54:26;;;;;;;0.05;0.05;;;6.50;99.90;;;;;;5114149;28;20039;-92
2022/02/22 12:57:01;;;;;;;0.08;0.08;;;6.40;99.90;;;;;;5115235;28;20082;-89
2022/02/22 12:59:31;;;;;;;0.10;0.10;;;6.30;99.90;;;;;;5131349;28;20044;-88
2022/02/22 13:02:00;;;;;;;0.10;0.10;;;6.40;99.90;;;;;;5131502;28;20051;-92
2022/02/22 13:04:38;;;;;;;0.10;0.10;;;6.50;99.90;;;;;;5114872;28;20515;-92